Time;durP1;ratioP1;P1;durP2;ratioP2;P2;SDS_P1;SDS_P2;PMS_P1;PMS_P2;Temp;Humidity;BMP_temperature;BMP_pressure;BME280_temperature;BME280_humidity;BME280_pressure;Samples;Min_cycle;Max_cycle;Signal;HPM_P1;HPM_P2
2023/03/30 00:01:13;;;;;;;10.43;6.10;;;;;;;11.68;100.00;100412.84;4922354;29;20106;-85
2023/03/30 00:03:39;;;;;;;10.55;6.13;;;;;;;11.57;100.00;100398.81;4922357;29;20478;-85
2023/03/30 00:06:06;;;;;;;10.75;6.20;;;;;;;11.59;100.00;100404.84;4910565;29;20038;-85
2023/03/30 00:08:32;;;;;;;14.23;7.10;;;;;;;11.66;100.00;100396.47;4918134;29;20549;-85
2023/03/30 00:11:12;;;;;;;13.48;6.97;;;;;;;11.83;100.00;100380.03;4919717;29;20114;-85
2023/03/30 00:13:38;;;;;;;14.38;5.80;;;;;;;11.80;100.00;100378.84;4913211;29;20131;-85
2023/03/30 00:16:05;;;;;;;8.63;5.18;;;;;;;11.93;100.00;100377.31;4931160;29;20042;-85
2023/03/30 00:18:33;;;;;;;14.90;5.97;;;;;;;12.02;100.00;100382.50;4936156;29;20446;-85
2023/03/30 00:20:58;;;;;;;9.38;5.03;;;;;;;11.99;100.00;100363.66;4937279;29;20050;-85
2023/03/30 00:23:23;;;;;;;10.18;5.18;;;;;;;12.08;100.00;100369.69;4916599;29;20067;-85
2023/03/30 00:25:49;;;;;;;8.35;4.80;;;;;;;12.19;100.00;100370.47;4922947;29;20039;-85
2023/03/30 00:28:14;;;;;;;8.20;4.72;;;;;;;12.20;100.00;100374.09;4915067;29;20067;-85
2023/03/30 00:30:40;;;;;;;10.55;5.40;;;;;;;12.33;100.00;100372.50;4914429;29;20036;-85
2023/03/30 00:33:06;;;;;;;11.65;4.00;;;;;;;12.30;100.00;100364.88;4908326;29;20036;-83
2023/03/30 00:35:31;;;;;;;5.50;4.05;;;;;;;12.56;100.00;100360.00;4909999;29;20495;-84
2023/03/30 00:38:00;;;;;;;10.57;4.63;;;;;;;12.36;100.00;100368.06;4932638;29;20031;-84
2023/03/30 00:40:27;;;;;;;11.07;4.28;;;;;;;12.34;100.00;100353.66;4908234;29;20042;-83
2023/03/30 00:43:01;;;;;;;10.05;4.78;;;;;;;12.69;100.00;100368.81;4924279;29;20529;-83
2023/03/30 00:45:29;;;;;;;8.57;4.50;;;;;;;12.62;100.00;100352.78;4909335;29;20040;-83
2023/03/30 00:48:08;;;;;;;7.55;4.70;;;;;;;12.73;100.00;100347.94;4913619;29;20125;-83
2023/03/30 00:50:35;;;;;;;7.93;3.83;;;;;;;12.52;100.00;100347.97;4923020;29;20045;-84
2023/03/30 00:53:08;;;;;;;10.63;4.05;;;;;;;12.75;100.00;100345.50;4906734;29;20103;-85
2023/03/30 00:55:36;;;;;;;10.05;4.38;;;;;;;12.76;100.00;100344.31;4905765;29;20031;-84
2023/03/30 00:58:01;;;;;;;10.07;4.15;;;;;;;12.91;100.00;100341.47;4923783;29;20134;-84
2023/03/30 01:00:26;;;;;;;10.60;5.57;;;;;;;12.80;100.00;100328.25;4927636;29;20031;-84
2023/03/30 01:02:57;;;;;;;10.20;5.28;;;;;;;12.77;100.00;100323.44;4926155;29;20122;-84
2023/03/30 01:05:24;;;;;;;8.60;4.30;;;;;;;12.73;100.00;100336.72;4913550;29;20035;-84
2023/03/30 01:07:50;;;;;;;9.82;4.35;;;;;;;12.80;100.00;100336.69;4910209;29;20031;-84
2023/03/30 01:10:16;;;;;;;9.20;4.45;;;;;;;12.79;100.00;100326.63;4931741;29;20812;-84
2023/03/30 01:12:42;;;;;;;11.38;4.65;;;;;;;12.82;100.00;100323.03;4909485;29;20245;-84
2023/03/30 01:15:09;;;;;;;9.75;4.40;;;;;;;12.66;100.00;100324.69;4923452;29;20031;-84
2023/03/30 01:17:48;;;;;;;15.18;5.38;;;;;;;12.69;100.00;100319.09;4917552;29;20041;-84
2023/03/30 01:20:32;;;;;;;7.07;4.13;;;;;;;12.75;100.00;100320.22;4925372;29;20045;-84
2023/03/30 01:23:17;;;;;;;6.10;4.07;;;;;;;12.74;100.00;100327.06;4909805;29;20130;-84
2023/03/30 01:25:49;;;;;;;8.00;4.30;;;;;;;12.72;100.00;100340.72;4922848;29;20042;-84
2023/03/30 01:28:25;;;;;;;8.75;4.20;;;;;;;12.79;100.00;100335.06;4906525;29;22061;-84
2023/03/30 01:31:28;;;;;;;7.35;3.50;;;;;;;12.78;100.00;100327.88;4925223;29;20032;-84
2023/03/30 01:34:30;;;;;;;7.27;4.10;;;;;;;12.87;100.00;100318.22;4906921;29;20027;-84
2023/03/30 01:37:01;;;;;;;8.85;4.07;;;;;;;12.64;100.00;100322.28;4925407;29;20067;-83
2023/03/30 01:39:34;;;;;;;7.57;4.85;;;;;;;12.57;100.00;100316.72;4907351;29;20039;-84
2023/03/30 01:42:11;;;;;;;8.57;4.28;;;;;;;12.49;100.00;100312.31;4918647;29;20095;-84
2023/03/30 01:44:58;;;;;;;5.75;4.00;;;;;;;12.55;100.00;100310.69;4905761;29;20035;-84
2023/03/30 01:47:38;;;;;;;9.20;4.28;;;;;;;12.51;100.00;100312.72;4927050;29;20052;-84
2023/03/30 01:50:12;;;;;;;9.20;4.53;;;;;;;12.49;100.00;100298.28;4913238;29;20138;-84
2023/03/30 01:52:46;;;;;;;12.45;4.03;;;;;;;12.45;100.00;100289.06;4911449;29;20078;-85
2023/03/30 01:55:19;;;;;;;12.10;4.05;;;;;;;12.61;100.00;100283.81;4926135;29;20051;-85
2023/03/30 01:57:58;;;;;;;9.35;3.88;;;;;;;12.48;100.00;100286.25;4921997;29;20043;-85
2023/03/30 02:00:26;;;;;;;6.32;3.95;;;;;;;12.43;100.00;100294.28;4925223;29;20031;-85
2023/03/30 02:03:01;;;;;;;8.20;3.28;;;;;;;12.37;100.00;100291.88;4906415;29;20027;-85
2023/03/30 02:05:29;;;;;;;8.95;3.67;;;;;;;12.44;100.00;100296.69;4912593;29;20500;-84
2023/03/30 02:08:03;;;;;;;8.50;4.60;;;;;;;12.44;100.00;100290.25;4906145;29;20056;-84
2023/03/30 02:10:32;;;;;;;7.72;3.63;;;;;;;12.43;100.00;100300.69;4908630;29;20630;-85
2023/03/30 02:12:59;;;;;;;9.48;4.07;;;;;;;12.53;100.00;100302.66;4907480;29;20513;-84
2023/03/30 02:15:30;;;;;;;10.45;4.30;;;;;;;12.39;100.00;100292.25;4923675;29;20766;-85
2023/03/30 02:17:56;;;;;;;6.63;3.50;;;;;;;12.54;100.00;100295.03;4909339;29;20043;-84
2023/03/30 02:20:21;;;;;;;8.27;4.10;;;;;;;12.47;100.00;100292.25;4925020;29;20047;-85
2023/03/30 02:22:48;;;;;;;9.77;4.30;;;;;;;12.54;100.00;100287.44;4914942;29;20027;-85
2023/03/30 02:25:14;;;;;;;10.48;4.93;;;;;;;12.52;100.00;100277.81;4928081;29;20564;-84
2023/03/30 02:27:41;;;;;;;8.18;3.60;;;;;;;12.69;100.00;100276.13;4923805;29;20094;-84
2023/03/30 02:30:07;;;;;;;8.82;3.60;;;;;;;12.60;100.00;100276.56;4909287;29;20031;-85
2023/03/30 02:32:46;;;;;;;4.30;3.28;;;;;;;12.51;100.00;100279.03;4921722;29;20054;-85
2023/03/30 02:35:23;;;;;;;12.02;4.50;;;;;;;12.62;100.00;100271.34;4922636;29;20569;-84
2023/03/30 02:38:01;;;;;;;25.48;4.95;;;;;;;12.63;100.00;100281.41;4907985;29;20043;-85
2023/03/30 02:40:38;;;;;;;6.50;3.70;;;;;;;12.38;100.00;100276.66;4922451;29;20410;-85
2023/03/30 02:43:15;;;;;;;8.30;3.53;;;;;;;12.52;100.00;100272.19;4924726;29;20024;-85
2023/03/30 02:46:16;;;;;;;10.48;4.10;;;;;;;12.41;100.00;100264.59;4903721;29;20027;-83
2023/03/30 02:49:07;;;;;;;9.63;3.72;;;;;;;12.40;100.00;100274.25;4872589;29;20039;-84
2023/03/30 02:51:45;;;;;;;7.60;3.72;;;;;;;12.41;100.00;100281.44;4930142;29;20055;-84
2023/03/30 02:54:23;;;;;;;13.13;5.93;;;;;;;12.36;100.00;100273.44;4910876;29;20063;-84
2023/03/30 02:57:11;;;;;;;6.90;3.30;;;;;;;12.39;100.00;100261.41;4924783;29;20042;-83
2023/03/30 02:59:51;;;;;;;9.98;4.35;;;;;;;12.46;100.00;100259.78;4899768;29;20032;-84
2023/03/30 03:02:21;;;;;;;6.15;2.85;;;;;;;12.45;100.00;100263.81;4928228;29;20028;-85
2023/03/30 03:04:48;;;;;;;11.85;4.40;;;;;;;12.38;100.00;100262.63;4908742;29;20471;-85
2023/03/30 03:07:14;;;;;;;7.00;3.50;;;;;;;12.38;100.00;100271.03;4905522;29;20398;-85
2023/03/30 03:09:40;;;;;;;11.32;4.38;;;;;;;12.51;100.00;100273.41;4923343;29;20043;-84
2023/03/30 03:12:06;;;;;;;9.25;4.10;;;;;;;12.37;100.00;100275.03;4924140;29;20144;-84
2023/03/30 03:14:31;;;;;;;11.75;3.38;;;;;;;12.36;100.00;100270.63;4906252;29;20042;-85
2023/03/30 03:16:56;;;;;;;7.80;3.53;;;;;;;12.43;100.00;100271.81;4906052;29;20490;-84
2023/03/30 03:19:22;;;;;;;7.13;4.13;;;;;;;12.36;100.00;100276.25;4921787;29;20024;-85
2023/03/30 03:21:47;;;;;;;8.80;3.72;;;;;;;12.33;100.00;100267.84;4929754;29;20051;-84
2023/03/30 03:24:16;;;;;;;10.32;3.00;;;;;;;12.37;100.00;100279.84;4920935;29;20031;-85
2023/03/30 03:26:42;;;;;;;11.68;3.80;;;;;;;12.41;100.00;100281.44;4910711;29;20039;-84
2023/03/30 03:29:07;;;;;;;7.80;3.90;;;;;;;12.39;100.00;100267.00;4923920;29;20046;-84
2023/03/30 03:31:34;;;;;;;7.63;3.40;;;;;;;12.31;100.00;100264.63;4928228;29;20032;-83
2023/03/30 03:34:00;;;;;;;7.18;3.72;;;;;;;12.41;100.00;100263.81;4908065;29;20036;-84
2023/03/30 03:36:25;;;;;;;6.38;2.88;;;;;;;12.51;100.00;100279.81;4901314;29;20458;-84
2023/03/30 03:38:51;;;;;;;8.43;4.00;;;;;;;12.36;100.00;100267.84;4924097;29;20028;-83
2023/03/30 03:41:16;;;;;;;8.57;3.72;;;;;;;12.32;100.00;100272.66;4921346;29;20027;-83
2023/03/30 03:43:42;;;;;;;8.10;3.25;;;;;;;12.31;100.00;100268.25;4908847;29;20046;-83
2023/03/30 03:46:07;;;;;;;7.50;3.60;;;;;;;12.35;100.00;100266.25;4921380;29;20059;-83
2023/03/30 03:48:33;;;;;;;9.05;3.30;;;;;;;12.28;100.00;100260.63;4921687;29;20427;-83
2023/03/30 03:50:58;;;;;;;8.00;3.53;;;;;;;12.33;100.00;100251.81;4924876;29;20067;-83
2023/03/30 03:53:26;;;;;;;5.88;3.45;;;;;;;12.39;100.00;100238.94;4910036;29;20038;-83
2023/03/30 03:55:53;;;;;;;7.95;3.72;;;;;;;12.28;100.00;100234.59;4906155;29;20442;-83
2023/03/30 03:58:18;;;;;;;6.82;3.15;;;;;;;12.28;100.00;100228.97;4935421;29;21318;-83
2023/03/30 04:00:43;;;;;;;6.70;3.17;;;;;;;12.30;100.00;100227.34;4902492;29;20576;-82
2023/03/30 04:03:10;;;;;;;8.80;3.20;;;;;;;12.29;100.00;100222.97;4923364;29;20036;-83
2023/03/30 04:05:36;;;;;;;14.15;3.53;;;;;;;12.29;100.00;100222.13;4922581;29;20040;-83
2023/03/30 04:08:02;;;;;;;7.85;3.70;;;;;;;12.27;100.00;100225.38;4921825;29;20039;-83
2023/03/30 04:10:27;;;;;;;10.23;3.40;;;;;;;12.24;100.00;100231.00;4925538;29;20051;-83
2023/03/30 04:12:57;;;;;;;6.53;2.80;;;;;;;12.31;100.00;100226.16;4919475;29;20039;-83
2023/03/30 04:15:23;;;;;;;15.02;3.35;;;;;;;12.21;100.00;100204.53;4903206;29;20035;-83
2023/03/30 04:17:48;;;;;;;10.27;2.90;;;;;;;12.26;100.00;100223.75;4903096;29;20486;-82
2023/03/30 04:20:15;;;;;;;8.93;3.33;;;;;;;12.21;100.00;100218.56;4929494;29;20035;-83
2023/03/30 04:22:41;;;;;;;11.10;4.15;;;;;;;12.19;100.00;100213.38;4908599;29;20123;-83
2023/03/30 04:25:13;;;;;;;8.32;3.90;;;;;;;12.26;100.00;100217.34;4909635;29;20036;-83
2023/03/30 04:27:41;;;;;;;5.68;2.97;;;;;;;12.15;100.00;100218.19;4906173;29;20413;-82
2023/03/30 04:30:08;;;;;;;8.98;3.45;;;;;;;12.22;100.00;100210.94;4922267;29;20074;-83
2023/03/30 04:32:33;;;;;;;11.18;3.17;;;;;;;12.32;100.00;100210.91;4926773;29;20028;-83
2023/03/30 04:35:00;;;;;;;6.05;3.15;;;;;;;12.20;100.00;100209.34;4924121;29;20055;-83
2023/03/30 04:37:29;;;;;;;6.22;2.92;;;;;;;12.23;100.00;100218.97;4902214;29;20565;-83
2023/03/30 04:39:58;;;;;;;9.90;3.13;;;;;;;12.19;100.00;100221.00;4903663;29;20576;-82
2023/03/30 04:42:29;;;;;;;7.65;3.40;;;;;;;12.19;100.00;100213.38;4925794;29;20438;-83
2023/03/30 04:44:58;;;;;;;8.38;3.28;;;;;;;12.33;100.00;100217.31;4922893;29;20126;-83
2023/03/30 04:47:24;;;;;;;6.50;3.35;;;;;;;12.18;100.00;100194.13;4926466;29;20028;-83
2023/03/30 04:49:50;;;;;;;4.85;2.88;;;;;;;12.22;100.00;100203.31;4915517;29;20438;-82
2023/03/30 04:52:16;;;;;;;12.18;2.65;;;;;;;12.29;100.00;100206.13;4928637;29;20488;-83
2023/03/30 04:54:41;;;;;;;6.10;3.13;;;;;;;12.34;100.00;100205.69;4923733;29;20629;-82
2023/03/30 04:57:06;;;;;;;4.72;2.97;;;;;;;12.23;100.00;100196.53;4926297;29;20035;-83
2023/03/30 04:59:32;;;;;;;6.65;2.83;;;;;;;12.28;100.00;100215.72;4930938;29;20036;-83
2023/03/30 05:01:57;;;;;;;6.57;2.85;;;;;;;12.27;100.00;100208.53;4892372;29;21684;-83
2023/03/30 05:04:23;;;;;;;9.50;2.80;;;;;;;12.24;100.00;100214.94;4921656;29;20122;-83
2023/03/30 05:06:48;;;;;;;8.52;2.63;;;;;;;12.23;100.00;100201.31;4920234;29;20536;-83
2023/03/30 05:09:14;;;;;;;8.60;2.88;;;;;;;12.28;100.00;100210.13;4919845;29;20114;-83
2023/03/30 05:11:40;;;;;;;8.48;2.72;;;;;;;12.24;100.00;100214.94;4912640;29;20110;-83
2023/03/30 05:14:05;;;;;;;5.70;3.70;;;;;;;12.27;100.00;100208.53;4901714;29;20035;-83
2023/03/30 05:16:31;;;;;;;5.53;2.90;;;;;;;12.27;100.00;100208.53;4914468;29;20083;-82
2023/03/30 05:18:57;;;;;;;6.03;2.97;;;;;;;12.33;100.00;100204.13;4920029;29;20051;-84
2023/03/30 05:21:22;;;;;;;6.18;2.40;;;;;;;12.31;100.00;100205.69;4913518;29;20054;-84
2023/03/30 05:23:48;;;;;;;4.85;3.42;;;;;;;12.23;100.00;100207.75;4905647;29;20047;-82
2023/03/30 05:26:13;;;;;;;12.55;2.95;;;;;;;12.25;100.00;100205.34;4922333;29;20136;-85
2023/03/30 05:28:39;;;;;;;5.95;3.17;;;;;;;12.38;100.00;100205.69;4928029;29;20493;-84
2023/03/30 05:31:05;;;;;;;7.78;3.60;;;;;;;12.39;100.00;100198.84;4922435;29;20035;-85
2023/03/30 05:33:31;;;;;;;5.60;3.22;;;;;;;12.37;100.00;100185.22;4909096;29;20169;-85
2023/03/30 05:35:56;;;;;;;10.27;4.43;;;;;;;12.34;100.00;100191.66;4904066;29;20496;-85
2023/03/30 05:38:21;;;;;;;11.38;3.15;;;;;;;12.19;100.00;100195.72;4906368;29;20069;-85
2023/03/30 05:40:52;;;;;;;9.27;3.35;;;;;;;12.18;100.00;100200.56;4925187;29;20111;-85
2023/03/30 05:43:18;;;;;;;15.85;5.03;;;;;;;12.10;100.00;100198.16;4924887;29;20032;-85
2023/03/30 05:45:44;;;;;;;10.50;3.58;;;;;;;11.99;100.00;100184.97;4905163;29;20041;-85
2023/03/30 05:48:10;;;;;;;10.38;3.25;;;;;;;12.10;100.00;100203.75;4927104;29;20039;-85
2023/03/30 05:50:35;;;;;;;10.60;3.30;;;;;;;12.14;100.00;100211.00;4905538;29;20506;-85
2023/03/30 05:53:00;;;;;;;8.55;4.00;;;;;;;12.11;100.00;100197.75;4909667;29;20127;-85
2023/03/30 05:55:26;;;;;;;6.93;3.15;;;;;;;12.11;100.00;100200.56;4914724;29;20478;-85
2023/03/30 05:57:52;;;;;;;9.55;3.90;;;;;;;12.07;100.00;100204.59;4930092;29;20110;-85
2023/03/30 06:00:20;;;;;;;8.52;3.50;;;;;;;12.14;100.00;100211.00;4902110;29;20568;-82
2023/03/30 06:02:46;;;;;;;15.25;4.15;;;;;;;12.17;100.00;100210.16;4917310;29;20546;-82
2023/03/30 06:05:11;;;;;;;10.25;3.55;;;;;;;12.31;100.00;100203.72;4909982;29;20173;-86
2023/03/30 06:07:37;;;;;;;9.30;3.58;;;;;;;12.24;100.00;100206.53;4897578;29;20494;-85
2023/03/30 06:10:04;;;;;;;10.52;3.90;;;;;;;12.43;100.00;100216.47;4920870;29;20032;-82
2023/03/30 06:12:31;;;;;;;11.13;3.72;;;;;;;12.18;100.00;100219.38;4910665;29;20040;-83
2023/03/30 06:14:56;;;;;;;9.00;3.08;;;;;;;12.08;100.00;100212.59;4912060;29;20031;-84
2023/03/30 06:17:22;;;;;;;13.00;3.15;;;;;;;12.07;100.00;100210.19;4925698;29;20039;-81
2023/03/30 06:19:47;;;;;;;14.13;3.33;;;;;;;12.00;100.00;100225.03;4926267;29;20576;-81
2023/03/30 06:22:12;;;;;;;9.80;2.60;;;;;;;11.96;100.00;100227.84;4925689;29;20027;-81
2023/03/30 06:24:38;;;;;;;9.98;3.58;;;;;;;12.01;100.00;100223.81;4929693;29;20071;-81
2023/03/30 06:27:03;;;;;;;7.82;2.90;;;;;;;12.02;100.00;100214.22;4925860;29;20040;-81
2023/03/30 06:29:29;;;;;;;12.65;4.50;;;;;;;12.06;100.00;100219.78;4930524;29;20036;-80
2023/03/30 06:31:54;;;;;;;12.07;3.15;;;;;;;12.05;100.00;100229.44;4922378;29;20035;-81
2023/03/30 06:34:20;;;;;;;14.00;3.15;;;;;;;12.07;100.00;100232.63;4920250;29;20592;-80
2023/03/30 06:36:46;;;;;;;14.20;3.70;;;;;;;12.03;100.00;100235.44;4911837;29;20497;-81
2023/03/30 06:39:13;;;;;;;9.07;3.05;;;;;;;12.05;100.00;100240.66;4930767;29;20035;-81
2023/03/30 06:41:39;;;;;;;11.73;3.55;;;;;;;12.00;100.00;100250.28;4910884;29;20122;-81
2023/03/30 06:44:05;;;;;;;20.08;4.00;;;;;;;12.02;100.00;100241.44;4929266;29;20482;-81
2023/03/30 06:46:32;;;;;;;18.52;4.85;;;;;;;11.97;100.00;100240.69;4927696;29;20027;-81
2023/03/30 06:48:57;;;;;;;12.52;3.70;;;;;;;12.02;100.00;100238.63;4915320;29;20031;-80
2023/03/30 06:51:23;;;;;;;10.60;4.22;;;;;;;12.03;100.00;100243.06;4909189;29;20042;-80
2023/03/30 06:53:48;;;;;;;12.13;3.58;;;;;;;12.10;100.00;100254.25;4911494;29;20729;-81
2023/03/30 06:56:14;;;;;;;19.05;4.97;;;;;;;12.13;100.00;100256.28;4908345;29;20036;-84
2023/03/30 06:58:40;;;;;;;24.23;5.18;;;;;;;12.04;100.00;100241.84;4926777;29;20042;-84
2023/03/30 07:01:10;;;;;;;21.33;4.97;;;;;;;12.00;100.00;100253.88;4930664;29;20430;-83
2023/03/30 07:03:36;;;;;;;15.85;4.22;;;;;;;11.99;100.00;100255.09;4930588;29;20036;-84
2023/03/30 07:06:03;;;;;;;18.08;4.57;;;;;;;11.99;100.00;100257.06;4927541;29;20016;-84
2023/03/30 07:08:28;;;;;;;14.13;4.00;;;;;;;12.02;100.00;100247.06;4929619;29;20027;-83
2023/03/30 07:10:54;;;;;;;14.00;4.03;;;;;;;12.06;100.00;100264.69;4913106;29;20128;-84
2023/03/30 07:13:20;;;;;;;20.08;4.28;;;;;;;12.08;100.00;100267.88;4929422;29;20098;-84
2023/03/30 07:15:46;;;;;;;18.90;4.45;;;;;;;12.14;100.00;100271.88;4932979;29;20047;-84
2023/03/30 07:18:12;;;;;;;16.90;3.85;;;;;;;12.13;100.00;100276.69;4914059;29;20036;-84
2023/03/30 07:20:37;;;;;;;18.42;4.00;;;;;;;12.16;100.00;100275.09;4930798;29;20038;-85
2023/03/30 07:23:03;;;;;;;20.48;4.57;;;;;;;12.19;100.00;100291.94;4927203;29;20020;-81
2023/03/30 07:25:28;;;;;;;20.77;4.63;;;;;;;12.15;100.00;100287.53;4926233;29;20267;-80
2023/03/30 07:27:55;;;;;;;20.77;4.35;;;;;;;12.15;100.00;100273.50;4924993;29;20178;-79
2023/03/30 07:30:21;;;;;;;23.88;3.92;;;;;;;12.05;100.00;100277.13;4923797;29;20031;-79
2023/03/30 07:32:48;;;;;;;18.05;4.00;;;;;;;12.08;100.00;100267.88;4912570;29;20518;-81
2023/03/30 07:35:14;;;;;;;18.20;5.35;;;;;;;12.06;100.00;100270.28;4909686;29;20592;-79
2023/03/30 07:37:39;;;;;;;20.70;4.55;;;;;;;12.00;100.00;100272.72;4908689;29;20031;-78
2023/03/30 07:40:09;;;;;;;17.58;4.75;;;;;;;12.02;100.00;100286.31;4910974;29;20103;-79
2023/03/30 07:42:35;;;;;;;25.65;4.78;;;;;;;11.96;100.00;100289.53;4904209;29;20479;-79
2023/03/30 07:45:01;;;;;;;22.52;5.38;;;;;;;11.94;100.00;100297.56;4926537;29;20495;-79
2023/03/30 07:47:26;;;;;;;18.77;5.75;;;;;;;11.92;100.00;100313.97;4926872;29;20127;-80
2023/03/30 07:49:52;;;;;;;14.73;5.55;;;;;;;11.93;100.00;100312.81;4922608;29;20056;-80
2023/03/30 07:52:17;;;;;;;21.08;4.70;;;;;;;12.00;100.00;100314.78;4924204;29;20028;-79
2023/03/30 07:54:43;;;;;;;11.77;4.45;;;;;;;11.93;100.00;100304.38;4923851;29;20024;-79
2023/03/30 07:57:10;;;;;;;33.30;5.95;;;;;;;11.90;100.00;100310.78;4909373;29;20023;-79
2023/03/30 07:59:35;;;;;;;15.05;4.05;;;;;;;11.95;100.00;100317.97;4926454;29;20028;-80
2023/03/30 08:02:01;;;;;;;13.27;4.50;;;;;;;11.81;100.00;100315.97;4915362;29;20034;-80
2023/03/30 08:04:26;;;;;;;20.15;5.35;;;;;;;11.89;100.00;100328.81;4929925;29;20038;-80
2023/03/30 08:06:52;;;;;;;24.38;6.22;;;;;;;11.86;100.00;100325.97;4905887;29;20042;-79
2023/03/30 08:09:18;;;;;;;27.77;4.72;;;;;;;11.88;100.00;100326.38;4925996;29;20054;-79
2023/03/30 08:11:43;;;;;;;19.17;4.70;;;;;;;11.84;100.00;100326.38;4929720;29;20040;-79
2023/03/30 08:14:09;;;;;;;22.15;5.57;;;;;;;11.94;100.00;100328.41;4910303;29;20180;-78
2023/03/30 08:16:34;;;;;;;31.05;7.03;;;;;;;11.88;100.00;100341.22;4929226;29;20482;-79
2023/03/30 08:19:00;;;;;;;16.85;4.40;;;;;;;11.92;100.00;100328.00;4923321;29;20074;-80
2023/03/30 08:21:25;;;;;;;16.05;5.47;;;;;;;11.98;100.00;100331.22;4914407;29;20052;-80
2023/03/30 08:23:57;;;;;;;25.92;5.47;;;;;;;11.96;100.00;100340.03;4913048;29;20024;-81
2023/03/30 08:26:23;;;;;;;21.43;4.50;;;;;;;11.99;100.00;100344.03;4928796;29;20545;-80
2023/03/30 08:28:49;;;;;;;24.80;4.22;;;;;;;12.02;100.00;100346.06;4927557;29;20032;-79
2023/03/30 08:31:17;;;;;;;20.77;4.00;;;;;;;12.08;100.00;100346.44;4931844;29;20443;-80
2023/03/30 08:33:43;;;;;;;23.13;4.70;;;;;;;12.10;100.00;100355.25;4916520;29;20075;-79
2023/03/30 08:36:09;;;;;;;15.40;3.58;;;;;;;12.13;100.00;100348.84;4930196;29;20123;-80
2023/03/30 08:38:34;;;;;;;19.30;4.10;;;;;;;12.26;100.00;100357.66;4917501;29;20558;-80
2023/03/30 08:41:00;;;;;;;21.60;6.13;;;;;;;12.33;100.00;100347.22;4934328;29;20087;-79
2023/03/30 08:43:28;;;;;;;20.00;4.68;;;;;;;12.37;100.00;100359.22;4932770;29;20027;-79
2023/03/30 08:45:53;;;;;;;20.00;4.10;;;;;;;12.34;100.00;100362.06;4907582;29;20517;-79
2023/03/30 08:48:24;;;;;;;16.35;4.45;;;;;;;12.28;100.00;100369.28;4908318;29;20040;-79
2023/03/30 08:51:04;;;;;;;25.05;5.00;;;;;;;12.35;100.00;100361.66;4934575;29;20135;-79
2023/03/30 08:53:32;;;;;;;21.83;5.70;;;;;;;12.38;100.00;100366.47;4903588;29;20036;-79
2023/03/30 08:56:08;;;;;;;22.80;3.60;;;;;;;12.44;100.00;100366.03;4928913;29;20492;-78
2023/03/30 08:58:44;;;;;;;23.52;4.90;;;;;;;12.50;100.00;100350.41;4924226;29;20032;-79
2023/03/30 09:01:24;;;;;;;21.80;5.25;;;;;;;12.58;100.00;100360.41;4907996;29;20035;-79
2023/03/30 09:04:02;;;;;;;23.77;4.88;;;;;;;12.59;100.00;100353.59;4908183;29;20039;-80
2023/03/30 09:06:47;;;;;;;23.70;4.70;;;;;;;12.67;100.00;100360.81;4907356;29;20046;-80
2023/03/30 09:09:18;;;;;;;22.70;5.07;;;;;;;12.72;100.00;100362.38;4931818;29;20039;-81
2023/03/30 09:11:47;;;;;;;23.20;4.50;;;;;;;12.69;100.00;100361.19;4915302;29;20027;-80
2023/03/30 09:14:33;;;;;;;20.27;4.60;;;;;;;12.65;100.00;100363.22;4913755;29;20043;-80
2023/03/30 09:17:08;;;;;;;18.38;5.20;;;;;;;12.60;100.00;100369.22;4915509;29;20047;-80
2023/03/30 09:19:56;;;;;;;24.95;4.82;;;;;;;12.44;100.00;100368.84;4913427;29;20296;-78
2023/03/30 09:22:31;;;;;;;25.17;6.32;;;;;;;12.54;100.00;100366.03;4931780;29;20402;-80
2023/03/30 09:24:58;;;;;;;28.42;5.95;;;;;;;12.64;100.00;100389.66;4930425;29;20039;-80
2023/03/30 09:27:43;;;;;;;27.92;6.78;;;;;;;12.71;100.00;100384.06;4905813;29;20039;-79
2023/03/30 09:30:22;;;;;;;18.55;4.22;;;;;;;12.71;100.00;100378.44;4930133;29;20079;-80
2023/03/30 09:32:59;;;;;;;18.48;5.63;;;;;;;12.76;100.00;100388.47;4928314;29;20086;-79
2023/03/30 09:35:43;;;;;;;30.13;5.40;;;;;;;12.73;100.00;100381.66;4928260;29;20107;-79
2023/03/30 09:38:12;;;;;;;26.40;5.28;;;;;;;12.68;100.00;100387.66;4928496;29;20086;-79
2023/03/30 09:41:05;;;;;;;28.65;4.75;;;;;;;12.71;100.00;100389.69;4929368;29;20048;-79
2023/03/30 09:43:50;;;;;;;18.75;5.07;;;;;;;12.76;100.00;100396.88;4928370;29;20035;-79
2023/03/30 09:46:16;;;;;;;20.38;4.18;;;;;;;12.64;100.00;100384.06;4930016;29;20043;-80
2023/03/30 09:48:44;;;;;;;21.10;5.00;;;;;;;12.84;100.00;100408.88;4913164;29;20036;-78
2023/03/30 09:51:21;;;;;;;22.58;4.82;;;;;;;12.87;100.00;100394.84;4913968;29;20056;-80
2023/03/30 09:53:49;;;;;;;19.50;4.75;;;;;;;13.18;100.00;100389.53;4920988;29;20055;-78
2023/03/30 09:56:26;;;;;;;15.30;3.80;;;;;;;13.18;100.00;100383.91;4924412;29;20167;-78
2023/03/30 09:58:51;;;;;;;21.75;4.20;;;;;;;13.27;100.00;100389.09;4926167;29;20027;-80
2023/03/30 10:01:19;;;;;;;19.75;4.93;;;;;;;13.37;100.00;100396.69;4932060;29;20043;-80
2023/03/30 10:04:05;;;;;;;15.07;3.92;;;;;;;13.41;100.00;100383.44;4930319;29;20031;-78
2023/03/30 10:06:37;;;;;;;21.15;4.03;;;;;;;13.44;100.00;100393.03;4906461;29;20506;-79
2023/03/30 10:09:07;;;;;;;24.45;4.68;;;;;;;13.32;99.70;100397.09;4914891;29;20039;-78
2023/03/30 10:11:38;;;;;;;12.23;3.53;;;;;;;13.28;100.00;100397.13;4932332;29;20031;-80
2023/03/30 10:14:06;;;;;;;20.13;3.95;;;;;;;13.52;100.00;100392.59;4927705;29;20502;-80
2023/03/30 10:16:32;;;;;;;22.85;5.05;;;;;;;13.49;100.00;100398.22;4932368;29;20102;-80
2023/03/30 10:19:03;;;;;;;27.35;4.07;;;;;;;13.62;97.70;100407.81;4930962;29;20107;-78
2023/03/30 10:21:35;;;;;;;17.30;3.42;;;;;;;13.48;96.66;100391.03;4931705;29;20043;-79
2023/03/30 10:24:17;;;;;;;23.07;6.67;;;;;;;13.50;96.38;100411.88;4913788;29;20040;-78
2023/03/30 10:26:46;;;;;;;10.18;3.70;;;;;;;13.50;96.58;100395.03;4910011;29;20038;-79
2023/03/30 10:29:15;;;;;;;20.17;4.97;;;;;;;13.66;97.67;100404.97;4926768;29;20038;-78
2023/03/30 10:31:44;;;;;;;16.92;3.92;;;;;;;13.86;96.65;100416.50;4931339;29;20506;-79
2023/03/30 10:34:17;;;;;;;14.63;4.30;;;;;;;13.75;96.48;100413.78;4909358;29;20047;-80
2023/03/30 10:36:46;;;;;;;24.00;4.45;;;;;;;13.68;99.40;100414.63;4930401;29;20031;-79
2023/03/30 10:39:23;;;;;;;18.60;3.90;;;;;;;13.66;98.07;100411.41;4928441;29;20027;-80
2023/03/30 10:41:49;;;;;;;21.92;3.70;;;;;;;13.85;93.26;100415.72;4912359;29;20477;-79
2023/03/30 10:44:23;;;;;;;11.93;3.78;;;;;;;13.85;92.79;100418.53;4909349;29;20066;-79
2023/03/30 10:46:51;;;;;;;11.80;3.65;;;;;;;14.00;93.77;100417.22;4926325;29;20038;-80
2023/03/30 10:49:38;;;;;;;18.50;4.82;;;;;;;14.16;92.15;100425.13;4906907;29;20399;-79
2023/03/30 10:52:25;;;;;;;18.45;3.63;;;;;;;14.20;92.71;100414.63;4923669;29;20051;-78
2023/03/30 10:55:05;;;;;;;22.02;3.90;;;;;;;14.15;92.53;100409.47;4903672;29;20042;-80
2023/03/30 10:57:56;;;;;;;25.40;4.95;;;;;;;14.11;95.71;100427.59;4922219;29;20031;-80
2023/03/30 11:01:00;;;;;;;18.73;4.00;;;;;;;14.24;93.92;100431.50;4921397;29;20090;-81
2023/03/30 11:03:31;;;;;;;18.70;3.25;;;;;;;14.40;93.61;100428.97;4898844;29;20047;-81
2023/03/30 11:06:05;;;;;;;15.15;3.97;;;;;;;14.23;91.72;100413.81;4923329;29;21877;-80
2023/03/30 11:08:51;;;;;;;29.95;3.95;;;;;;;14.14;94.38;100426.75;4922294;29;20118;-81
2023/03/30 11:11:21;;;;;;;22.30;4.28;;;;;;;13.97;95.39;100423.66;4925171;29;20550;-80
2023/03/30 11:14:15;;;;;;;23.95;4.68;;;;;;;14.15;94.42;100428.38;4912097;29;20032;-80
2023/03/30 11:16:49;;;;;;;27.65;4.38;;;;;;;14.08;96.37;100428.41;4893250;29;20040;-80
2023/03/30 11:19:29;;;;;;;20.45;4.25;;;;;;;14.02;95.08;100417.59;4921944;29;20048;-80
2023/03/30 11:22:04;;;;;;;31.15;4.20;;;;;;;13.99;95.13;100431.69;4913576;29;20016;-80
2023/03/30 11:24:30;;;;;;;25.75;4.90;;;;;;;13.76;93.83;100432.22;4918442;29;20509;-80